セントジョンズ の空港の天気 - METARとTAF

セント・ジョンズ国際空港 ( CYYT / YYT ) - カナダ ニューファンドランド・ラブラドール州セントジョンズ
飛行場実況気象(Metar)
観測時間01/21 13:30 NST (01/21 17:00 UTC)
風向・風速西 14m/s 瞬間風速19m/s
視程10km以上
天気現象
少しの雲 雲底高度 850m
気温-3℃
湿度68%
気圧998.6hPa
METARCYYT 211700Z 28027G36KT 15SM FEW028 M03/M08 A2947 RMK CU2 SLP986
過去の天気等 Google飛行場航空写真 Wunderground天気予報

過去48時間のMETAR

飛行場予報(TAF)
発表時間: 1/21 14:09 NST (1/21 17:39 UTC)
予報対象時間: 21日14時 NST ~ 22日14時 NST
風向・風速西 14m/s 瞬間風速 19m/s
視程10km以上
少しの雲 雲底高度 910m
21日14時 NST ~ 21日22時 NST に一時的に
全天の8割程度の雲 雲底高度 910m
21日22時 NST から
風向・風速西 13m/s 瞬間風速 18m/s
視程10km以上
全天の8割程度の雲 雲底高度 760m
22日2時 NST から
風向・風速西 13m/s 瞬間風速 18m/s
視程10km以上
天気現象弱いしゅう雪
全天の8割程度の雲 雲底高度 610m
22日10時 NST から
風向・風速西 13m/s 瞬間風速 18m/s
視程10km以上
全天の8割程度の雲 雲底高度 910m
TAF CYYT 211739Z 2118/2218 28027G37KT P6SM FEW030
TEMPO 2118/2202 BKN030
FM220200 27025G35KT P6SM BKN025
FM220600 27025G35KT 6SM -SHSN BKN020
FM221400 27025G35KT P6SM BKN030 RMK NXT FCST BY 220000Z